createdAt,value
2022-11-18T00:00:56.550Z,58.63
2022-11-18T00:03:23.681Z,60.63
2022-11-18T00:06:00.687Z,78.22
2022-11-18T00:08:27.334Z,78.20
2022-11-18T00:10:54.037Z,68.90
2022-11-18T00:13:39.423Z,64.82
2022-11-18T00:18:37.833Z,67.03
2022-11-18T00:21:09.962Z,68.85
2022-11-18T00:23:37.793Z,89.95
2022-11-18T00:26:06.677Z,74.32
2022-11-18T00:28:34.111Z,82.68
2022-11-18T00:31:10.013Z,79.13
2022-11-18T00:33:37.042Z,77.78
2022-11-18T00:36:05.728Z,69.32
2022-11-18T00:38:32.508Z,79.20
2022-11-18T00:41:04.382Z,74.32
2022-11-18T00:43:31.443Z,75.60
2022-11-18T00:46:00.156Z,67.60
2022-11-18T00:48:26.894Z,79.45
2022-11-18T00:50:56.138Z,79.00
2022-11-18T00:53:24.885Z,86.53
2022-11-18T00:55:51.645Z,77.07
2022-11-18T00:58:19.207Z,87.63
2022-11-18T01:00:50.078Z,75.07
2022-11-18T01:03:17.041Z,83.45
2022-11-18T01:05:43.774Z,76.22
2022-11-18T01:08:11.889Z,80.13
2022-11-18T01:10:40.099Z,90.72
2022-11-18T01:13:20.322Z,93.88
2022-11-18T01:15:54.913Z,84.18
2022-11-18T01:18:27.225Z,78.65
2022-11-18T01:20:53.886Z,96.00
2022-11-18T01:23:21.067Z,87.50
2022-11-18T01:25:49.331Z,94.93
2022-11-18T01:28:23.170Z,105.63
2022-11-18T01:30:50.552Z,95.57
2022-11-18T01:33:17.173Z,114.22
2022-11-18T01:35:44.670Z,107.40
2022-11-18T01:38:13.714Z,122.70
2022-11-18T01:40:40.941Z,133.43
2022-11-18T01:43:19.633Z,125.03
2022-11-18T01:45:48.450Z,129.77
2022-11-18T01:48:21.194Z,150.85
2022-11-18T01:51:10.169Z,143.63
2022-11-18T01:54:02.333Z,133.73
2022-11-18T01:56:37.121Z,160.75
2022-11-18T01:59:08.957Z,168.73
2022-11-18T02:01:35.918Z,193.73
2022-11-18T02:04:27.852Z,166.63
2022-11-18T02:06:55.133Z,255.13
2022-11-18T02:09:22.482Z,272.55
2022-11-18T02:11:51.900Z,275.67
2022-11-18T02:14:22.971Z,262.92
2022-11-18T02:17:08.105Z,236.15
2022-11-18T02:19:46.971Z,249.15
2022-11-18T02:22:52.883Z,250.95
2022-11-18T02:25:42.715Z,196.75
2022-11-18T02:28:15.201Z,257.70
2022-11-18T02:30:55.124Z,260.60
2022-11-18T02:33:47.545Z,217.88
2022-11-18T02:36:17.011Z,263.05
2022-11-18T02:38:48.288Z,191.80
2022-11-18T02:41:23.543Z,196.77
2022-11-18T02:43:55.569Z,157.90
2022-11-18T02:46:30.205Z,146.30
2022-11-18T02:48:57.380Z,132.70
2022-11-18T02:51:28.277Z,125.35
2022-11-18T02:53:59.074Z,132.95
2022-11-18T02:56:27.212Z,139.30
2022-11-18T02:58:53.868Z,127.55
2022-11-18T03:01:25.119Z,129.57
2022-11-18T03:03:51.787Z,130.80
2022-11-18T03:06:27.322Z,129.20
2022-11-18T03:09:11.533Z,132.02
2022-11-18T03:12:02.315Z,135.35
2022-11-18T03:14:51.764Z,158.60
2022-11-18T03:17:37.228Z,149.93
2022-11-18T03:20:09.689Z,139.85
2022-11-18T03:22:43.995Z,139.93
2022-11-18T03:25:28.753Z,132.20
2022-11-18T03:28:09.159Z,132.68
2022-11-18T03:30:39.333Z,127.88
2022-11-18T03:33:10.960Z,123.80
2022-11-18T03:35:41.623Z,115.95
2022-11-18T03:38:15.625Z,112.95
2022-11-18T03:40:48.507Z,110.03
2022-11-18T03:43:21.495Z,128.52
2022-11-18T03:45:59.820Z,131.95
2022-11-18T03:48:31.683Z,138.32
2022-11-18T03:51:08.273Z,147.25
2022-11-18T03:53:39.470Z,138.18
2022-11-18T03:56:19.467Z,132.88
2022-11-18T03:58:53.024Z,153.32
2022-11-18T04:01:42.830Z,171.38
2022-11-18T04:04:10.168Z,193.40
2022-11-18T04:06:47.431Z,184.13
2022-11-18T04:09:23.713Z,229.85
2022-11-18T04:12:05.738Z,226.73
2022-11-18T04:14:38.096Z,194.13
2022-11-18T04:17:17.873Z,208.77
2022-11-18T04:19:44.565Z,191.60
2022-11-18T04:22:12.285Z,196.90
2022-11-18T04:24:39.258Z,201.85
2022-11-18T04:27:13.476Z,216.25
2022-11-18T04:29:40.082Z,206.40
2022-11-18T04:32:06.870Z,173.70
2022-11-18T04:34:33.514Z,190.88
2022-11-18T04:37:00.137Z,167.52
2022-11-18T04:39:26.725Z,181.63
2022-11-18T04:41:56.012Z,190.27
2022-11-18T04:44:31.072Z,209.52
2022-11-18T04:49:26.070Z,183.02
2022-11-18T04:51:52.959Z,197.40
2022-11-18T04:54:20.543Z,198.05
2022-11-18T04:56:49.666Z,208.88
2022-11-18T04:59:20.691Z,204.02
2022-11-18T05:01:48.673Z,202.63
2022-11-18T05:04:17.865Z,230.35
2022-11-18T05:06:44.916Z,208.32
2022-11-18T05:09:11.603Z,182.40
2022-11-18T05:11:56.804Z,172.90
2022-11-18T05:14:27.218Z,164.05
2022-11-18T05:16:55.037Z,163.63
2022-11-18T05:19:21.708Z,150.68
2022-11-18T05:21:48.422Z,145.40
2022-11-18T05:24:15.680Z,161.13
2022-11-18T05:26:42.505Z,166.85
2022-11-18T05:29:12.869Z,174.23
2022-11-18T05:31:39.478Z,186.75
2022-11-18T05:34:07.543Z,155.95
2022-11-18T05:36:34.165Z,157.27
2022-11-18T05:39:00.787Z,140.68
2022-11-18T05:41:45.831Z,157.07
2022-11-18T05:44:12.524Z,164.35
2022-11-18T05:46:39.202Z,195.68
2022-11-18T05:49:05.914Z,181.85
2022-11-18T05:51:32.661Z,195.20
2022-11-18T05:54:00.097Z,243.50
2022-11-18T05:56:36.792Z,233.75
2022-11-18T05:59:04.143Z,226.48
2022-11-18T06:01:33.394Z,259.17
2022-11-18T06:04:03.162Z,254.30
2022-11-18T06:06:29.925Z,268.00
2022-11-18T06:09:08.697Z,272.00
2022-11-18T06:11:43.754Z,300.40
2022-11-18T06:16:49.073Z,241.18
2022-11-18T06:19:17.065Z,258.55
2022-11-18T06:21:45.280Z,248.70
2022-11-18T06:24:13.462Z,268.95
2022-11-18T06:26:40.923Z,231.52
2022-11-18T06:29:11.178Z,263.90
2022-11-18T06:31:37.800Z,243.90
2022-11-18T06:34:04.411Z,242.68
2022-11-18T06:36:31.042Z,211.73
2022-11-18T06:39:05.262Z,253.00
2022-11-18T06:41:32.330Z,258.77
2022-11-18T06:43:59.083Z,245.52
2022-11-18T06:46:44.581Z,236.57
2022-11-18T06:49:11.906Z,202.00
2022-11-18T06:51:39.069Z,164.25
2022-11-18T06:54:10.703Z,163.55
2022-11-18T06:56:39.062Z,159.75
2022-11-18T06:59:05.730Z,159.45
2022-11-18T07:01:36.032Z,132.00
2022-11-18T07:04:03.043Z,158.80
2022-11-18T07:06:32.869Z,121.78
2022-11-18T07:09:01.376Z,137.05
2022-11-18T07:11:28.405Z,131.23
2022-11-18T07:13:55.227Z,127.43
2022-11-18T07:16:24.175Z,129.10
2022-11-18T07:18:51.890Z,132.77
2022-11-18T07:21:20.793Z,135.98
2022-11-18T07:23:47.837Z,140.82
2022-11-18T07:26:15.277Z,133.63
2022-11-18T07:28:42.538Z,142.75
2022-11-18T07:31:10.710Z,150.70
2022-11-18T07:33:38.450Z,166.30
2022-11-18T07:36:32.324Z,158.77
2022-11-18T07:39:04.760Z,211.82
2022-11-18T07:41:31.504Z,167.50
2022-11-18T07:44:00.988Z,165.38
2022-11-18T07:46:34.155Z,184.98
2022-11-18T07:49:03.625Z,151.45
2022-11-18T07:51:35.666Z,134.50
2022-11-18T07:54:16.905Z,171.75
2022-11-18T07:56:43.794Z,140.60
2022-11-18T07:59:10.389Z,120.85
2022-11-18T08:01:37.055Z,127.05
2022-11-18T08:04:09.894Z,129.10
2022-11-18T08:06:36.819Z,111.93
2022-11-18T08:09:05.075Z,109.38
2022-11-18T08:11:32.368Z,103.95
2022-11-18T08:13:59.070Z,105.65
2022-11-18T08:16:26.417Z,112.28
2022-11-18T08:18:53.434Z,112.60
2022-11-18T08:21:22.046Z,103.43
2022-11-18T08:23:53.668Z,105.60
2022-11-18T08:26:21.252Z,109.28
2022-11-18T08:28:48.553Z,111.82
2022-11-18T08:31:26.864Z,108.47
2022-11-18T08:34:03.527Z,103.90
2022-11-18T08:36:32.409Z,105.97
2022-11-18T08:39:01.161Z,104.05
2022-11-18T08:41:36.660Z,101.65
2022-11-18T08:44:05.204Z,100.45
2022-11-18T08:46:32.472Z,93.28
2022-11-18T08:48:59.668Z,95.97
2022-11-18T08:51:26.660Z,104.20
2022-11-18T08:53:53.499Z,124.25
2022-11-18T08:56:21.609Z,123.97
2022-11-18T08:58:48.231Z,121.68
2022-11-18T09:01:15.027Z,132.35
2022-11-18T09:03:42.081Z,113.88
2022-11-18T09:06:17.841Z,130.52
2022-11-18T09:08:45.276Z,123.72
2022-11-18T09:11:21.110Z,134.68
2022-11-18T09:16:38.063Z,154.60
2022-11-18T09:19:24.856Z,131.70
2022-11-18T09:21:51.306Z,131.98
2022-11-18T09:24:18.320Z,150.15
2022-11-18T09:26:45.425Z,142.23
2022-11-18T09:29:12.646Z,144.90
2022-11-18T09:31:39.347Z,152.93
2022-11-18T09:34:08.570Z,150.02
2022-11-18T09:36:35.286Z,140.10
2022-11-18T09:39:01.921Z,145.20
2022-11-18T09:41:52.093Z,145.55
2022-11-18T09:44:50.985Z,133.38
2022-11-18T09:47:32.472Z,152.38
2022-11-18T09:53:41.186Z,151.38
2022-11-18T09:56:16.514Z,135.82
2022-11-18T09:58:44.932Z,158.40
2022-11-18T10:01:19.713Z,140.57
2022-11-18T10:03:46.861Z,135.43
2022-11-18T10:06:25.076Z,159.02
2022-11-18T10:09:31.502Z,142.35
2022-11-18T10:12:14.273Z,153.50
2022-11-18T10:15:09.416Z,174.45
2022-11-18T10:17:50.527Z,149.82
2022-11-18T10:20:22.582Z,163.52
2022-11-18T10:23:07.752Z,171.20
2022-11-18T10:25:34.394Z,183.98
2022-11-18T10:28:20.374Z,203.48
2022-11-18T10:30:47.726Z,175.40
2022-11-18T10:33:23.004Z,200.15
2022-11-18T10:35:51.033Z,163.50
2022-11-18T10:38:23.408Z,173.45
2022-11-18T10:40:49.957Z,163.13
2022-11-18T10:43:49.359Z,156.30
2022-11-18T10:46:33.617Z,147.90
2022-11-18T10:49:09.205Z,136.45
2022-11-18T10:51:37.790Z,118.53
2022-11-18T10:54:22.389Z,100.40
2022-11-18T10:57:16.690Z,96.93
2022-11-18T10:59:51.029Z,86.93
2022-11-18T11:02:24.135Z,90.18
2022-11-18T11:04:52.194Z,78.68
2022-11-18T11:07:33.886Z,77.95
2022-11-18T11:10:06.926Z,87.13
2022-11-18T11:12:47.601Z,86.85
2022-11-18T11:15:19.125Z,103.20
2022-11-18T11:18:12.165Z,101.53
2022-11-18T11:20:38.983Z,118.15
2022-11-18T11:23:22.030Z,114.78
2022-11-18T11:29:15.380Z,101.63
2022-11-18T11:31:44.886Z,105.05
2022-11-18T11:34:17.736Z,101.30
2022-11-18T11:36:44.332Z,87.35
2022-11-18T11:39:40.458Z,95.40
2022-11-18T11:42:38.621Z,92.03
2022-11-18T11:45:18.281Z,92.13
2022-11-18T11:48:00.401Z,85.70
2022-11-18T11:51:03.470Z,129.35
2022-11-18T11:54:20.283Z,196.80
2022-11-18T11:56:52.407Z,105.60
2022-11-18T11:59:38.191Z,81.47
2022-11-18T12:02:26.629Z,88.07
2022-11-18T12:05:28.621Z,92.65
2022-11-18T12:07:59.389Z,86.05
2022-11-18T12:10:47.232Z,138.48
2022-11-18T12:13:20.929Z,85.45
2022-11-18T12:16:03.848Z,82.10
2022-11-18T12:18:35.045Z,61.13
2022-11-18T12:21:01.717Z,56.53
2022-11-18T12:23:32.912Z,56.67
2022-11-18T12:26:02.399Z,57.78
2022-11-18T12:28:34.152Z,46.80
2022-11-18T12:31:15.975Z,47.85
2022-11-18T12:33:44.253Z,45.17
2022-11-18T12:36:24.423Z,44.13
2022-11-18T12:38:52.388Z,51.55
2022-11-18T12:41:59.779Z,55.63
2022-11-18T12:44:28.786Z,48.67
2022-11-18T12:46:57.202Z,50.05
2022-11-18T12:49:24.191Z,47.45
2022-11-18T12:51:54.882Z,48.13
2022-11-18T12:54:40.058Z,48.22
2022-11-18T12:57:19.472Z,42.33
2022-11-18T12:59:46.364Z,58.78
2022-11-18T13:02:12.927Z,50.75
2022-11-18T13:04:44.948Z,49.80
2022-11-18T13:07:36.638Z,48.30
2022-11-18T13:10:22.497Z,52.10
2022-11-18T13:12:49.337Z,56.60
2022-11-18T13:15:34.667Z,49.40
2022-11-18T13:20:40.034Z,59.88
2022-11-18T13:23:28.058Z,47.25
2022-11-18T13:26:12.126Z,52.63
2022-11-18T13:29:03.454Z,47.33
2022-11-18T13:31:45.049Z,47.05
2022-11-18T13:34:25.449Z,60.65
2022-11-18T13:36:53.859Z,50.58
2022-11-18T13:39:29.889Z,46.78
2022-11-18T13:42:02.727Z,46.10
2022-11-18T13:44:34.713Z,53.17
2022-11-18T13:47:05.690Z,40.20
2022-11-18T13:49:43.991Z,36.67
2022-11-18T13:52:23.498Z,47.28
2022-11-18T13:54:52.767Z,49.75
2022-11-18T13:57:22.421Z,35.10
2022-11-18T13:59:50.096Z,35.00
2022-11-18T14:02:17.498Z,26.65
2022-11-18T14:04:54.432Z,34.33
2022-11-18T14:07:31.879Z,30.92
2022-11-18T14:10:14.548Z,23.77
2022-11-18T14:12:41.279Z,25.58
2022-11-18T14:15:22.688Z,46.67
2022-11-18T14:17:52.742Z,31.63
2022-11-18T14:20:19.814Z,30.38
2022-11-18T14:22:50.822Z,32.03
2022-11-18T14:25:43.898Z,25.58
2022-11-18T14:28:13.864Z,30.85
2022-11-18T14:30:45.753Z,31.95
2022-11-18T14:33:20.537Z,39.13
2022-11-18T14:38:44.077Z,35.38
2022-11-18T14:41:43.909Z,36.60
2022-11-18T14:44:13.211Z,26.05
2022-11-18T14:46:41.359Z,26.27
2022-11-18T14:49:13.805Z,28.38
2022-11-18T14:51:40.535Z,23.08
2022-11-18T14:54:07.144Z,24.15
2022-11-18T14:56:34.777Z,21.05
2022-11-18T14:59:01.431Z,23.65
2022-11-18T15:01:30.968Z,20.50
2022-11-18T15:03:57.905Z,19.83
2022-11-18T15:06:24.797Z,20.42
2022-11-18T15:08:53.051Z,18.95
2022-11-18T15:11:19.829Z,62.13
2022-11-18T15:13:47.330Z,21.95
2022-11-18T15:16:21.079Z,40.40
2022-11-18T15:18:50.178Z,67.60
2022-11-18T15:21:17.178Z,33.28
2022-11-18T15:23:43.948Z,26.52
2022-11-18T15:26:17.778Z,73.90
2022-11-18T15:28:45.134Z,27.27
2022-11-18T15:31:12.097Z,26.23
2022-11-18T15:33:38.855Z,21.75
2022-11-18T15:36:11.646Z,81.93
2022-11-18T15:38:38.225Z,21.95
2022-11-18T15:41:04.998Z,16.48
2022-11-18T15:43:32.059Z,14.45
2022-11-18T15:45:59.165Z,16.60
2022-11-18T15:48:25.785Z,14.23
2022-11-18T15:50:54.375Z,13.25
2022-11-18T15:53:21.130Z,11.15
2022-11-18T15:55:47.817Z,16.77
2022-11-18T15:58:17.279Z,11.95
2022-11-18T16:00:45.235Z,11.50
2022-11-18T16:03:12.083Z,13.90
2022-11-18T16:05:38.698Z,17.67
2022-11-18T16:08:05.470Z,10.95
2022-11-18T16:10:51.300Z,11.98
2022-11-18T16:13:21.510Z,16.88
2022-11-18T16:15:48.205Z,13.68
2022-11-18T16:18:17.726Z,17.33
2022-11-18T16:20:44.537Z,15.27
2022-11-18T16:23:11.209Z,10.45
2022-11-18T16:25:43.965Z,16.33
2022-11-18T16:28:10.678Z,16.77
2022-11-18T16:30:56.087Z,15.73
2022-11-18T16:33:22.712Z,13.48
2022-11-18T16:35:49.701Z,12.35
2022-11-18T16:38:16.346Z,15.68
2022-11-18T16:40:43.022Z,15.50
2022-11-18T16:43:09.630Z,14.00
2022-11-18T16:45:36.242Z,15.50
2022-11-18T16:48:02.952Z,14.95
2022-11-18T16:50:29.589Z,13.20
2022-11-18T16:52:56.876Z,15.40
2022-11-18T16:55:23.482Z,11.88
2022-11-18T16:57:50.249Z,12.73
2022-11-18T17:00:17.641Z,15.32
2022-11-18T17:02:44.319Z,18.95
2022-11-18T17:05:13.358Z,12.65
2022-11-18T17:07:40.004Z,12.20
2022-11-18T17:10:19.425Z,12.43
2022-11-18T17:12:47.137Z,15.32
2022-11-18T17:15:14.848Z,19.88
2022-11-18T17:17:41.452Z,11.90
2022-11-18T17:20:08.589Z,11.93
2022-11-18T17:22:35.253Z,12.02
2022-11-18T17:25:05.282Z,9.48
2022-11-18T17:27:32.252Z,10.13
2022-11-18T17:29:59.007Z,7.78
2022-11-18T17:32:25.636Z,7.30
2022-11-18T17:34:52.263Z,7.25
2022-11-18T17:37:18.845Z,5.50
2022-11-18T17:39:45.430Z,7.07
2022-11-18T17:42:14.793Z,5.03
2022-11-18T17:44:41.399Z,8.55
2022-11-18T17:47:07.975Z,5.90
2022-11-18T17:49:34.605Z,13.70
2022-11-18T17:52:01.325Z,8.32
2022-11-18T17:54:28.020Z,9.40
2022-11-18T17:56:54.592Z,11.27
2022-11-18T17:59:22.803Z,11.68
2022-11-18T18:01:54.386Z,14.18
2022-11-18T18:04:24.161Z,12.48
2022-11-18T18:06:52.671Z,14.02
2022-11-18T18:09:26.984Z,10.18
2022-11-18T18:11:57.001Z,11.35
2022-11-18T18:14:23.574Z,10.27
2022-11-18T18:16:50.898Z,10.73
2022-11-18T18:19:22.370Z,11.05
2022-11-18T18:21:49.869Z,9.82
2022-11-18T18:24:19.250Z,10.00
2022-11-18T18:26:46.489Z,13.15
2022-11-18T18:29:16.046Z,9.90
2022-11-18T18:31:42.679Z,22.73
2022-11-18T18:34:09.497Z,16.63
2022-11-18T18:36:38.266Z,8.35
2022-11-18T18:39:04.951Z,12.65
2022-11-18T18:41:32.458Z,30.10
2022-11-18T18:44:00.462Z,17.25
2022-11-18T18:46:33.504Z,15.52
2022-11-18T18:49:03.170Z,35.38
2022-11-18T18:51:34.571Z,28.85
2022-11-18T18:54:01.303Z,7.97
2022-11-18T18:56:27.954Z,14.27
2022-11-18T18:58:56.581Z,11.38
2022-11-18T19:01:23.890Z,25.30
2022-11-18T19:04:01.286Z,8.50
2022-11-18T19:09:23.154Z,7.20
2022-11-18T19:12:08.945Z,9.00
2022-11-18T19:17:09.173Z,7.70
2022-11-18T19:19:55.158Z,7.25
2022-11-18T19:24:50.238Z,6.60
2022-11-18T19:27:18.818Z,10.20
2022-11-18T19:29:45.565Z,10.15
2022-11-18T19:32:14.437Z,11.05
2022-11-18T19:34:41.091Z,9.15
2022-11-18T19:37:07.723Z,10.13
2022-11-18T19:39:35.222Z,13.35
2022-11-18T19:42:01.955Z,10.65
2022-11-18T19:44:28.667Z,9.73
2022-11-18T19:46:55.288Z,10.30
2022-11-18T19:49:22.648Z,9.02
2022-11-18T19:51:49.563Z,10.45
2022-11-18T19:54:18.919Z,11.48
2022-11-18T19:56:45.522Z,11.57
2022-11-18T19:59:12.681Z,14.23
2022-11-18T20:01:40.240Z,13.55
2022-11-18T20:04:07.170Z,14.68
2022-11-18T20:06:35.711Z,11.52
2022-11-18T20:09:03.361Z,15.32
2022-11-18T20:11:30.042Z,16.70
2022-11-18T20:13:56.658Z,14.95
2022-11-18T20:16:24.904Z,18.48
2022-11-18T20:19:05.009Z,19.92
2022-11-18T20:21:34.809Z,22.95
2022-11-18T20:24:03.703Z,20.10
2022-11-18T20:26:43.307Z,23.35
2022-11-18T20:29:10.408Z,20.83
2022-11-18T20:31:37.484Z,27.13
2022-11-18T20:34:04.641Z,26.77
2022-11-18T20:36:33.895Z,26.02
2022-11-18T20:39:04.123Z,21.48
2022-11-18T20:41:31.727Z,23.58
2022-11-18T20:43:59.986Z,29.33
2022-11-18T20:46:27.076Z,29.17
2022-11-18T20:48:54.452Z,29.70
2022-11-18T20:51:24.000Z,29.90
2022-11-18T20:53:51.827Z,33.10
2022-11-18T20:56:20.326Z,35.15
2022-11-18T20:58:47.727Z,33.33
2022-11-18T21:01:19.505Z,35.85
2022-11-18T21:03:53.863Z,43.30
2022-11-18T21:06:22.425Z,36.75
2022-11-18T21:08:49.020Z,35.25
2022-11-18T21:11:16.614Z,29.25
2022-11-18T21:14:01.740Z,39.78
2022-11-18T21:16:28.525Z,44.45
2022-11-18T21:18:55.175Z,42.88
2022-11-18T21:21:40.381Z,45.17
2022-11-18T21:26:34.988Z,38.30
2022-11-18T21:29:03.893Z,40.88
2022-11-18T21:31:31.102Z,35.50
2022-11-18T21:33:58.141Z,39.10
2022-11-18T21:36:26.558Z,45.13
2022-11-18T21:38:53.703Z,47.95
2022-11-18T21:41:20.757Z,45.85
2022-11-18T21:46:35.752Z,49.67
2022-11-18T21:49:03.538Z,54.55
2022-11-18T21:51:31.992Z,56.65
2022-11-18T21:53:59.800Z,56.35
2022-11-18T21:56:31.251Z,61.28
2022-11-18T21:59:02.547Z,66.00
2022-11-18T22:01:31.974Z,64.18
2022-11-18T22:04:01.335Z,61.42
2022-11-18T22:06:29.949Z,57.88
2022-11-18T22:08:56.761Z,60.53
2022-11-18T22:11:23.975Z,59.05
2022-11-18T22:13:51.932Z,70.93
2022-11-18T22:16:22.181Z,72.43
2022-11-18T22:18:56.058Z,68.80
2022-11-18T22:21:26.145Z,69.05
2022-11-18T22:23:53.389Z,72.90
2022-11-18T22:26:21.174Z,58.92
2022-11-18T22:28:52.370Z,79.47
2022-11-18T22:31:20.945Z,73.25
2022-11-18T22:33:48.677Z,76.55
2022-11-18T22:36:17.343Z,69.57
2022-11-18T22:38:44.874Z,84.20
2022-11-18T22:41:34.788Z,73.88
2022-11-18T22:44:07.076Z,78.45
2022-11-18T22:46:35.962Z,68.07
2022-11-18T22:49:03.520Z,83.57
2022-11-18T22:51:30.478Z,75.93
2022-11-18T22:54:22.901Z,66.55
2022-11-18T22:56:43.833Z,80.68
2022-11-18T22:59:12.117Z,96.53
2022-11-18T23:01:39.060Z,92.13
2022-11-18T23:04:06.013Z,90.28
2022-11-18T23:06:32.687Z,87.88
2022-11-18T23:08:59.347Z,83.20
2022-11-18T23:11:44.482Z,94.75
2022-11-18T23:16:39.853Z,93.13
2022-11-18T23:19:08.756Z,90.88
2022-11-18T23:21:35.900Z,95.00
2022-11-18T23:24:03.237Z,102.00
2022-11-18T23:26:30.243Z,72.13
2022-11-18T23:28:56.935Z,83.80
2022-11-18T23:31:25.812Z,108.97
2022-11-18T23:33:54.077Z,97.85
2022-11-18T23:36:21.258Z,105.38
2022-11-18T23:38:48.223Z,105.32
2022-11-18T23:41:17.180Z,94.07
2022-11-18T23:43:48.397Z,102.90
2022-11-18T23:46:17.387Z,93.18
2022-11-18T23:48:45.128Z,102.30
2022-11-18T23:51:16.105Z,102.35
2022-11-18T23:53:43.352Z,108.25
2022-11-18T23:56:12.623Z,116.28
2022-11-18T23:58:40.797Z,116.35
